createdAt,value
2023-03-01T00:01:59.276Z,99.90
2023-03-01T00:04:47.209Z,99.90
2023-03-01T00:07:34.828Z,99.90
2023-03-01T00:10:22.406Z,99.90
2023-03-01T00:13:09.949Z,99.90
2023-03-01T00:15:57.598Z,99.90
2023-03-01T00:18:45.536Z,99.90
2023-03-01T00:21:33.310Z,99.90
2023-03-01T00:24:20.822Z,99.90
2023-03-01T00:27:08.971Z,99.90
2023-03-01T00:29:56.592Z,99.90
2023-03-01T00:32:44.200Z,99.90
2023-03-01T00:35:34.188Z,99.90
2023-03-01T00:38:21.896Z,99.90
2023-03-01T00:41:12.523Z,99.90
2023-03-01T00:44:00.307Z,99.90
2023-03-01T00:46:47.882Z,99.90
2023-03-01T00:49:35.842Z,99.90
2023-03-01T00:52:23.359Z,99.90
2023-03-01T00:55:11.692Z,99.90
2023-03-01T00:57:59.327Z,99.90
2023-03-01T01:00:47.089Z,99.90
2023-03-01T01:03:34.764Z,99.90
2023-03-01T01:06:28.607Z,99.90
2023-03-01T01:09:18.276Z,99.90
2023-03-01T01:12:06.567Z,99.90
2023-03-01T01:14:54.264Z,99.90
2023-03-01T01:17:44.800Z,99.90
2023-03-01T01:20:32.338Z,99.90
2023-03-01T01:23:19.981Z,99.90
2023-03-01T01:26:21.092Z,99.90
2023-03-01T01:29:09.400Z,99.90
2023-03-01T01:31:57.021Z,99.90
2023-03-01T01:34:44.660Z,99.90
2023-03-01T01:37:32.309Z,99.90
2023-03-01T01:40:20.057Z,99.90
2023-03-01T01:43:18.975Z,99.90
2023-03-01T01:46:32.751Z,99.90
2023-03-01T01:49:26.166Z,99.90
2023-03-01T01:52:22.976Z,99.90
2023-03-01T01:55:16.362Z,99.90
2023-03-01T01:58:07.915Z,99.90
2023-03-01T02:00:55.663Z,99.90
2023-03-01T02:03:45.971Z,99.90
2023-03-01T02:06:47.616Z,99.90
2023-03-01T02:09:36.123Z,99.90
2023-03-01T02:12:25.895Z,99.90
2023-03-01T02:15:13.487Z,99.90
2023-03-01T02:18:02.659Z,99.90
2023-03-01T02:21:13.655Z,99.90
2023-03-01T02:24:12.051Z,99.90
2023-03-01T02:27:01.513Z,99.90
2023-03-01T02:29:49.109Z,99.90
2023-03-01T02:32:38.332Z,99.90
2023-03-01T02:35:25.976Z,99.90
2023-03-01T02:38:14.468Z,99.90
2023-03-01T02:41:05.232Z,99.90
2023-03-01T02:43:53.146Z,99.90
2023-03-01T02:46:47.542Z,99.90
2023-03-01T02:49:38.340Z,99.90
2023-03-01T02:52:50.254Z,99.90
2023-03-01T02:55:38.035Z,99.90
2023-03-01T02:58:26.046Z,99.90
2023-03-01T03:01:17.087Z,99.90
2023-03-01T03:04:11.912Z,99.90
2023-03-01T03:07:01.119Z,99.90
2023-03-01T03:09:48.883Z,99.90
2023-03-01T03:12:36.482Z,99.90
2023-03-01T03:15:24.901Z,99.90
2023-03-01T03:18:16.218Z,99.90
2023-03-01T03:21:04.001Z,99.90
2023-03-01T03:23:51.546Z,99.90
2023-03-01T03:26:39.206Z,99.90
2023-03-01T03:29:27.030Z,99.90
2023-03-01T03:32:14.668Z,99.90
2023-03-01T03:35:02.680Z,99.90
2023-03-01T03:38:02.753Z,99.90
2023-03-01T03:40:52.769Z,99.90
2023-03-01T03:43:43.649Z,99.90
2023-03-01T03:46:31.472Z,99.90
2023-03-01T03:49:19.226Z,99.90
2023-03-01T03:52:14.407Z,99.90
2023-03-01T03:55:02.024Z,99.90
2023-03-01T03:57:54.985Z,99.90
2023-03-01T04:00:44.677Z,99.90
2023-03-01T04:03:33.585Z,99.90
2023-03-01T04:06:21.489Z,99.90
2023-03-01T04:09:08.993Z,99.90
2023-03-01T04:11:56.795Z,99.90
2023-03-01T04:14:44.411Z,99.90
2023-03-01T04:17:31.995Z,99.90
2023-03-01T04:20:29.302Z,99.90
2023-03-01T04:23:21.907Z,99.90
2023-03-01T04:26:09.719Z,99.90
2023-03-01T04:28:57.258Z,99.90
2023-03-01T04:31:45.135Z,99.90
2023-03-01T04:34:32.719Z,99.90
2023-03-01T04:37:20.410Z,99.90
2023-03-01T04:40:17.426Z,99.90
2023-03-01T04:43:05.700Z,99.90
2023-03-01T04:45:53.491Z,99.90
2023-03-01T04:48:43.112Z,99.90
2023-03-01T04:51:30.755Z,99.90
2023-03-01T04:54:18.286Z,99.90
2023-03-01T04:57:05.873Z,99.90
2023-03-01T04:59:56.721Z,99.90
2023-03-01T05:02:44.538Z,99.90
2023-03-01T05:05:39.084Z,99.90
2023-03-01T05:08:28.035Z,99.90
2023-03-01T05:11:15.887Z,99.90
2023-03-01T05:14:04.582Z,99.90
2023-03-01T05:16:52.128Z,99.90
2023-03-01T05:19:39.887Z,99.90
2023-03-01T05:22:28.024Z,99.90
2023-03-01T05:25:16.003Z,99.90
2023-03-01T05:28:05.391Z,99.90
2023-03-01T05:30:54.300Z,99.90
2023-03-01T05:33:42.675Z,99.90
2023-03-01T05:36:30.654Z,99.90
2023-03-01T05:39:18.378Z,99.90
2023-03-01T05:42:06.038Z,99.90
2023-03-01T05:44:55.042Z,99.90
2023-03-01T05:47:47.346Z,99.90
2023-03-01T05:50:38.421Z,99.90
2023-03-01T05:53:27.610Z,99.90
2023-03-01T05:56:15.294Z,99.90
2023-03-01T05:59:04.044Z,99.90
2023-03-01T06:01:51.634Z,99.90
2023-03-01T06:04:39.402Z,99.90
2023-03-01T06:07:27.070Z,99.90
2023-03-01T06:10:15.161Z,99.90
2023-03-01T06:13:02.809Z,99.90
2023-03-01T06:15:50.888Z,99.90
2023-03-01T06:18:39.497Z,99.90
2023-03-01T06:21:28.436Z,99.90
2023-03-01T06:24:15.990Z,99.90
2023-03-01T06:27:03.668Z,99.90
2023-03-01T06:29:51.309Z,99.90
2023-03-01T06:32:43.246Z,99.90
2023-03-01T06:35:31.671Z,99.90
2023-03-01T06:38:19.960Z,99.90
2023-03-01T06:41:07.808Z,99.90
2023-03-01T06:43:55.713Z,99.90
2023-03-01T06:46:43.333Z,99.90
2023-03-01T06:49:31.376Z,99.90
2023-03-01T06:52:19.141Z,99.90
2023-03-01T06:55:07.556Z,99.90
2023-03-01T06:57:57.314Z,99.90
2023-03-01T07:00:45.409Z,99.90
2023-03-01T07:03:33.197Z,99.90
2023-03-01T07:06:21.004Z,99.90
2023-03-01T07:09:14.216Z,99.90
2023-03-01T07:12:03.257Z,99.90
2023-03-01T07:14:50.940Z,99.90
2023-03-01T07:17:38.785Z,99.90
2023-03-01T07:20:26.774Z,99.90
2023-03-01T07:23:14.435Z,99.90
2023-03-01T07:26:02.066Z,99.90
2023-03-01T07:28:50.124Z,99.90
2023-03-01T07:31:40.279Z,99.90
2023-03-01T07:34:28.230Z,99.90
2023-03-01T07:37:15.801Z,99.90
2023-03-01T07:40:06.922Z,99.90
2023-03-01T07:42:58.988Z,99.90
2023-03-01T07:46:04.755Z,98.10
2023-03-01T07:49:03.421Z,96.10
2023-03-01T07:52:17.901Z,92.80
2023-03-01T07:55:18.598Z,91.70
2023-03-01T07:58:06.211Z,90.10
2023-03-01T08:00:54.346Z,87.90
2023-03-01T08:03:45.652Z,85.70
2023-03-01T08:06:36.174Z,86.30
2023-03-01T08:09:24.117Z,82.40
2023-03-01T08:12:12.074Z,79.80
2023-03-01T08:15:00.140Z,79.50
2023-03-01T08:17:51.280Z,76.30
2023-03-01T08:20:39.224Z,77.40
2023-03-01T08:23:27.342Z,76.00
2023-03-01T08:26:21.880Z,78.60
2023-03-01T08:29:09.913Z,75.70
2023-03-01T08:31:57.788Z,71.40
2023-03-01T08:34:48.821Z,68.20
2023-03-01T08:37:39.437Z,66.30
2023-03-01T08:40:33.461Z,65.70
2023-03-01T08:43:22.479Z,63.70
2023-03-01T08:46:13.817Z,62.60
2023-03-01T08:49:01.733Z,61.60
2023-03-01T08:51:49.846Z,58.50
2023-03-01T08:54:37.926Z,57.10
2023-03-01T08:57:25.858Z,55.20
2023-03-01T09:00:16.152Z,53.90
2023-03-01T09:03:10.443Z,52.60
2023-03-01T09:06:03.131Z,49.30
2023-03-01T09:08:52.126Z,48.60
2023-03-01T09:11:42.740Z,45.60
2023-03-01T09:14:30.418Z,48.00
2023-03-01T09:17:19.146Z,45.60
2023-03-01T09:20:07.358Z,46.40
2023-03-01T09:22:57.418Z,43.80
2023-03-01T09:25:45.193Z,44.20
2023-03-01T09:28:35.126Z,45.00
2023-03-01T09:31:25.076Z,40.20
2023-03-01T09:34:17.801Z,38.50
2023-03-01T09:37:07.839Z,37.00
2023-03-01T09:39:55.934Z,35.50
2023-03-01T09:43:03.826Z,34.00
2023-03-01T09:45:54.464Z,33.10
2023-03-01T09:48:51.958Z,32.20
2023-03-01T09:51:39.950Z,29.50
2023-03-01T09:54:28.228Z,29.50
2023-03-01T09:57:39.660Z,27.90
2023-03-01T10:00:40.777Z,28.10
2023-03-01T10:03:55.314Z,28.20
2023-03-01T10:06:52.388Z,28.70
2023-03-01T10:09:43.413Z,27.70
2023-03-01T10:12:41.519Z,26.30
2023-03-01T10:15:41.026Z,27.20
2023-03-01T10:18:32.703Z,26.60
2023-03-01T10:21:21.448Z,26.90
2023-03-01T10:24:15.212Z,27.00
2023-03-01T10:27:10.183Z,26.30
2023-03-01T10:30:15.299Z,27.00
2023-03-01T10:33:04.382Z,25.80
2023-03-01T10:35:52.613Z,25.70
2023-03-01T10:38:58.863Z,25.80
2023-03-01T10:41:59.984Z,25.30
2023-03-01T10:44:49.810Z,25.50
2023-03-01T10:47:37.519Z,25.80
2023-03-01T10:50:25.154Z,24.00
2023-03-01T10:53:39.172Z,23.70
2023-03-01T10:56:27.083Z,23.80
2023-03-01T10:59:33.690Z,22.40
2023-03-01T11:02:35.164Z,22.30
2023-03-01T11:05:25.852Z,20.90
2023-03-01T11:08:13.880Z,20.30
2023-03-01T11:11:16.579Z,21.00
2023-03-01T11:14:26.774Z,20.10
2023-03-01T11:17:34.665Z,20.80
2023-03-01T11:20:30.475Z,20.40
2023-03-01T11:23:18.725Z,20.20
2023-03-01T11:26:13.254Z,20.00
2023-03-01T11:29:07.735Z,20.00
2023-03-01T11:31:59.204Z,18.90
2023-03-01T11:34:56.619Z,20.80
2023-03-01T11:38:03.106Z,19.20
2023-03-01T11:40:54.302Z,20.00
2023-03-01T11:43:50.207Z,19.50
2023-03-01T11:47:04.689Z,19.80
2023-03-01T11:50:19.915Z,18.70
2023-03-01T11:53:16.529Z,17.30
2023-03-01T11:56:10.256Z,15.40
2023-03-01T11:59:24.420Z,16.60
2023-03-01T12:02:39.595Z,16.20
2023-03-01T12:05:45.611Z,15.90
2023-03-01T12:08:57.055Z,14.10
2023-03-01T12:12:03.809Z,15.90
2023-03-01T12:15:42.477Z,16.50
2023-03-01T12:18:54.374Z,15.50
2023-03-01T12:22:20.632Z,15.20
2023-03-01T12:25:15.992Z,12.70
2023-03-01T12:28:44.390Z,13.30
2023-03-01T12:31:54.599Z,14.30
2023-03-01T12:35:26.480Z,13.60
2023-03-01T12:38:20.322Z,14.20
2023-03-01T12:41:37.271Z,12.30
2023-03-01T12:44:46.304Z,10.00
2023-03-01T12:48:08.130Z,11.30
2023-03-01T12:51:04.843Z,11.60
2023-03-01T12:54:00.951Z,13.00
2023-03-01T12:56:53.780Z,13.00
2023-03-01T12:59:54.943Z,13.10
2023-03-01T13:02:52.704Z,13.30
2023-03-01T13:17:33.831Z,12.50
2023-03-01T13:20:29.832Z,13.00
2023-03-01T13:23:23.210Z,12.60
2023-03-01T13:26:21.938Z,12.80
2023-03-01T13:29:27.651Z,12.80
2023-03-01T13:32:44.528Z,13.60
2023-03-01T13:35:53.690Z,12.40
2023-03-01T13:39:00.360Z,11.70
2023-03-01T13:41:55.129Z,12.30
2023-03-01T13:44:44.822Z,13.70
2023-03-01T13:47:36.024Z,13.30
2023-03-01T13:50:30.740Z,13.40
2023-03-01T13:53:28.118Z,13.30
2023-03-01T13:56:28.535Z,13.20
2023-03-01T13:59:19.504Z,14.00
2023-03-01T14:02:16.599Z,13.70
2023-03-01T14:05:04.826Z,12.90
2023-03-01T14:07:53.701Z,13.80
2023-03-01T14:11:01.541Z,13.90
2023-03-01T14:14:14.703Z,14.10
2023-03-01T14:17:25.941Z,12.30
2023-03-01T14:20:19.851Z,13.30
2023-03-01T14:23:18.336Z,13.40
2023-03-01T14:26:09.273Z,14.60
2023-03-01T14:28:59.553Z,13.90
2023-03-01T14:31:53.618Z,13.50
2023-03-01T14:34:54.028Z,13.80
2023-03-01T14:37:41.993Z,14.20
2023-03-01T14:40:32.553Z,14.40
2023-03-01T14:43:28.203Z,14.60
2023-03-01T14:46:30.685Z,15.00
2023-03-01T14:49:24.584Z,15.00
2023-03-01T14:52:45.702Z,15.10
2023-03-01T14:55:38.529Z,14.30
2023-03-01T14:58:27.542Z,14.80
2023-03-01T15:01:18.146Z,15.80
2023-03-01T15:04:07.597Z,14.30
2023-03-01T15:07:09.704Z,14.50
2023-03-01T15:10:04.112Z,14.40
2023-03-01T15:12:54.669Z,13.20
2023-03-01T15:15:49.676Z,13.90
2023-03-01T15:18:38.813Z,14.10
2023-03-01T15:21:37.934Z,13.50
2023-03-01T15:24:28.860Z,14.00
2023-03-01T15:27:28.388Z,14.50
2023-03-01T15:30:24.962Z,15.50
2023-03-01T15:33:39.058Z,15.40
2023-03-01T15:36:43.740Z,15.40
2023-03-01T15:39:46.792Z,17.10
2023-03-01T15:42:45.387Z,17.80
2023-03-01T15:45:40.009Z,18.60
2023-03-01T15:48:31.585Z,18.90
2023-03-01T15:51:27.017Z,18.70
2023-03-01T15:54:22.729Z,18.70
2023-03-01T16:02:44.700Z,17.00
2023-03-01T16:04:40.869Z,18.90
2023-03-01T16:32:56.729Z,20.60
2023-03-01T16:35:48.766Z,20.90
2023-03-01T16:38:36.417Z,21.30
2023-03-01T16:41:24.947Z,21.50
2023-03-01T16:44:13.092Z,21.10
2023-03-01T16:47:00.854Z,21.20
2023-03-01T16:49:48.621Z,21.50
2023-03-01T16:52:36.641Z,22.10
2023-03-01T16:55:24.385Z,22.40
2023-03-01T16:58:12.314Z,23.20
2023-03-01T17:01:09.191Z,23.70
2023-03-01T17:03:56.731Z,23.60
2023-03-01T17:06:44.498Z,24.00
2023-03-01T17:09:38.954Z,24.40
2023-03-01T17:12:26.842Z,25.10
2023-03-01T17:15:14.747Z,25.50
2023-03-01T17:18:02.644Z,25.90
2023-03-01T17:20:50.362Z,26.00
2023-03-01T17:23:40.636Z,25.80
2023-03-01T17:26:32.436Z,26.00
2023-03-01T17:29:20.585Z,25.70
2023-03-01T17:32:11.393Z,26.20
2023-03-01T17:34:59.403Z,26.20
2023-03-01T17:37:47.378Z,26.30
2023-03-01T17:40:36.317Z,26.70
2023-03-01T17:43:24.785Z,27.00
2023-03-01T17:46:16.326Z,27.20
2023-03-01T17:49:04.455Z,28.40
2023-03-01T17:51:52.328Z,27.90
2023-03-01T17:54:40.650Z,28.60
2023-03-01T17:57:28.462Z,28.60
2023-03-01T18:00:20.430Z,28.30
2023-03-01T18:03:13.994Z,28.10
2023-03-01T18:06:04.551Z,28.40
2023-03-01T18:08:53.828Z,28.70
2023-03-01T18:11:51.538Z,28.30
2023-03-01T18:14:43.320Z,28.50
2023-03-01T18:17:31.896Z,28.50
2023-03-01T18:20:22.474Z,28.90
2023-03-01T18:23:14.130Z,29.00
2023-03-01T18:26:11.679Z,29.20
2023-03-01T18:29:04.378Z,29.30
2023-03-01T18:31:56.032Z,29.30
2023-03-01T18:34:45.212Z,29.50
2023-03-01T18:37:45.460Z,29.80
2023-03-01T18:40:43.716Z,30.50
2023-03-01T18:43:33.410Z,30.30
2023-03-01T18:46:27.371Z,30.40
2023-03-01T18:49:18.588Z,31.00
2023-03-01T18:52:06.594Z,31.00
2023-03-01T18:54:57.382Z,31.80
2023-03-01T18:57:46.353Z,31.80
2023-03-01T19:00:39.254Z,32.20
2023-03-01T19:03:30.845Z,32.20
2023-03-01T19:06:22.008Z,32.40
2023-03-01T19:09:18.541Z,32.80
2023-03-01T19:12:07.270Z,33.40
2023-03-01T19:14:55.434Z,33.50
2023-03-01T19:17:46.524Z,34.20
2023-03-01T19:20:34.253Z,34.70
2023-03-01T19:23:23.000Z,34.50
2023-03-01T19:26:17.676Z,35.00
2023-03-01T19:29:06.719Z,35.90
2023-03-01T19:31:54.442Z,36.00
2023-03-01T19:34:42.384Z,36.60
2023-03-01T19:37:33.139Z,37.30
2023-03-01T19:40:25.271Z,37.80
2023-03-01T19:43:13.087Z,38.10
2023-03-01T19:46:01.004Z,39.10
2023-03-01T19:48:50.179Z,39.20
2023-03-01T19:51:39.578Z,39.90
2023-03-01T19:54:27.625Z,40.30
2023-03-01T19:57:18.430Z,40.90
2023-03-01T20:03:08.597Z,42.40
2023-03-01T20:05:56.789Z,42.60
2023-03-01T20:08:44.905Z,43.80
2023-03-01T20:11:33.018Z,44.80
2023-03-01T20:14:23.569Z,45.40
2023-03-01T20:17:11.864Z,45.80
2023-03-01T20:19:59.591Z,46.00
2023-03-01T20:22:47.447Z,46.20
2023-03-01T20:25:34.976Z,45.80
2023-03-01T20:28:22.526Z,46.50
2023-03-01T20:31:12.296Z,46.70
2023-03-01T20:34:00.239Z,47.50
2023-03-01T20:36:47.794Z,47.30
2023-03-01T20:39:35.505Z,47.80
2023-03-01T20:42:23.223Z,47.70
2023-03-01T20:45:11.284Z,48.00
2023-03-01T20:47:58.949Z,48.20
2023-03-01T20:50:47.005Z,49.00
2023-03-01T20:53:34.978Z,49.30
2023-03-01T20:56:23.361Z,49.80
2023-03-01T20:59:13.118Z,50.30
2023-03-01T21:02:00.977Z,51.40
2023-03-01T21:04:48.652Z,51.70
2023-03-01T21:07:36.440Z,51.60
2023-03-01T21:10:27.129Z,52.40
2023-03-01T21:13:20.296Z,52.70
2023-03-01T21:16:13.708Z,53.10
2023-03-01T21:19:01.792Z,53.70
2023-03-01T21:21:49.555Z,54.10
2023-03-01T21:24:37.674Z,53.50
2023-03-01T21:27:25.331Z,54.00
2023-03-01T21:30:13.428Z,55.20
2023-03-01T21:33:03.103Z,56.00
2023-03-01T21:35:58.251Z,56.50
2023-03-01T21:38:49.793Z,56.40
2023-03-01T21:41:38.314Z,56.40
2023-03-01T21:44:29.235Z,56.70
2023-03-01T21:47:16.909Z,56.80
2023-03-01T21:50:05.303Z,57.60
2023-03-01T21:52:52.923Z,57.10
2023-03-01T21:55:47.556Z,57.20
2023-03-01T21:58:35.882Z,56.90
2023-03-01T22:01:27.410Z,56.60
2023-03-01T22:04:15.654Z,56.40
2023-03-01T22:07:03.861Z,56.60
2023-03-01T22:09:51.545Z,56.60
2023-03-01T22:12:39.394Z,57.20
2023-03-01T22:15:27.732Z,56.60
2023-03-01T22:18:15.572Z,57.10
2023-03-01T22:21:05.455Z,57.40
2023-03-01T22:23:54.288Z,57.50
2023-03-01T22:26:44.076Z,57.10
2023-03-01T22:29:31.652Z,57.70
2023-03-01T22:32:21.893Z,58.20
2023-03-01T22:35:10.252Z,58.10
2023-03-01T22:37:58.525Z,57.90
2023-03-01T22:41:03.252Z,58.20
2023-03-01T22:43:50.907Z,57.70
2023-03-01T22:46:38.979Z,57.90
2023-03-01T22:49:26.491Z,58.90
2023-03-01T22:52:14.560Z,58.30
2023-03-01T22:55:02.346Z,58.20
2023-03-01T22:57:51.332Z,57.90
2023-03-01T23:00:39.143Z,58.50
2023-03-01T23:03:26.742Z,58.80
2023-03-01T23:06:15.477Z,59.20
2023-03-01T23:09:07.298Z,59.50
2023-03-01T23:11:55.246Z,59.70
2023-03-01T23:14:42.902Z,60.70
2023-03-01T23:17:30.448Z,61.00
2023-03-01T23:20:18.108Z,60.60
2023-03-01T23:23:05.756Z,60.80
2023-03-01T23:25:57.639Z,61.60
2023-03-01T23:28:45.553Z,61.40
2023-03-01T23:31:33.216Z,61.90
2023-03-01T23:34:21.093Z,61.20
2023-03-01T23:37:10.434Z,61.60
2023-03-01T23:39:58.112Z,62.10
2023-03-01T23:42:46.458Z,62.90
2023-03-01T23:45:38.225Z,62.80
2023-03-01T23:48:25.830Z,63.00
2023-03-01T23:51:14.718Z,62.70
2023-03-01T23:54:05.496Z,63.80
2023-03-01T23:56:53.331Z,64.80
2023-03-01T23:59:41.157Z,65.50
